sensor_id;sensor_type;location;lat;lon;timestamp;pressure;altitude;pressure_sealevel;temperature;humidity
21803;BME280;18591;47.080;22.214;2023-11-18T00:00:55;98831.50;;;10.04;64.24
21803;BME280;18591;47.080;22.214;2023-11-18T00:02:58;98836.53;;;9.93;63.97
21803;BME280;18591;47.080;22.214;2023-11-18T00:05:00;98839.41;;;9.88;64.57
21803;BME280;18591;47.080;22.214;2023-11-18T00:07:03;98834.41;;;9.80;64.28
21803;BME280;18591;47.080;22.214;2023-11-18T00:09:06;98842.44;;;9.80;64.14
21803;BME280;18591;47.080;22.214;2023-11-18T00:11:20;98857.72;;;9.78;64.15
21803;BME280;18591;47.080;22.214;2023-11-18T00:13:23;98846.88;;;9.81;64.56
21803;BME280;18591;47.080;22.214;2023-11-18T00:15:29;98848.63;;;9.82;64.22
21803;BME280;18591;47.080;22.214;2023-11-18T00:17:32;98866.53;;;9.82;64.00
21803;BME280;18591;47.080;22.214;2023-11-18T00:19:35;98872.25;;;9.74;64.00
21803;BME280;18591;47.080;22.214;2023-11-18T00:21:38;98863.03;;;9.80;63.86
21803;BME280;18591;47.080;22.214;2023-11-18T00:23:41;98868.47;;;9.78;63.94
21803;BME280;18591;47.080;22.214;2023-11-18T00:25:43;98882.03;;;9.75;64.32
21803;BME280;18591;47.080;22.214;2023-11-18T00:27:47;98872.06;;;9.58;64.03
21803;BME280;18591;47.080;22.214;2023-11-18T00:29:50;98878.34;;;9.57;63.96
21803;BME280;18591;47.080;22.214;2023-11-18T00:31:53;98883.31;;;9.67;63.92
21803;BME280;18591;47.080;22.214;2023-11-18T00:33:56;98886.06;;;9.65;64.05
21803;BME280;18591;47.080;22.214;2023-11-18T00:35:58;98896.59;;;9.70;63.59
21803;BME280;18591;47.080;22.214;2023-11-18T00:38:02;98888.16;;;9.58;63.35
21803;BME280;18591;47.080;22.214;2023-11-18T00:40:05;98891.25;;;9.49;63.14
21803;BME280;18591;47.080;22.214;2023-11-18T00:42:09;98897.81;;;9.42;63.53
21803;BME280;18591;47.080;22.214;2023-11-18T00:44:13;98895.53;;;9.33;64.02
21803;BME280;18591;47.080;22.214;2023-11-18T00:46:15;98905.59;;;9.28;63.31
21803;BME280;18591;47.080;22.214;2023-11-18T00:48:18;98904.59;;;9.30;63.68
21803;BME280;18591;47.080;22.214;2023-11-18T00:50:21;98901.09;;;9.28;63.51
21803;BME280;18591;47.080;22.214;2023-11-18T00:52:24;98905.69;;;9.25;63.28
21803;BME280;18591;47.080;22.214;2023-11-18T00:54:26;98914.97;;;8.96;63.91
21803;BME280;18591;47.080;22.214;2023-11-18T00:56:29;98919.81;;;9.08;63.81
21803;BME280;18591;47.080;22.214;2023-11-18T00:58:31;98920.56;;;9.11;63.61
21803;BME280;18591;47.080;22.214;2023-11-18T01:00:34;98929.72;;;9.06;63.62
21803;BME280;18591;47.080;22.214;2023-11-18T01:02:36;98933.22;;;9.08;63.88
21803;BME280;18591;47.080;22.214;2023-11-18T01:04:40;98934.41;;;9.01;63.73
21803;BME280;18591;47.080;22.214;2023-11-18T01:06:43;98925.88;;;9.13;63.60
21803;BME280;18591;47.080;22.214;2023-11-18T01:08:46;98936.25;;;9.21;63.54
21803;BME280;18591;47.080;22.214;2023-11-18T01:10:49;98937.25;;;9.18;63.33
21803;BME280;18591;47.080;22.214;2023-11-18T01:12:51;98933.72;;;8.96;63.73
21803;BME280;18591;47.080;22.214;2023-11-18T01:14:54;98945.50;;;9.13;63.75
21803;BME280;18591;47.080;22.214;2023-11-18T01:16:56;98932.22;;;9.10;63.27
21803;BME280;18591;47.080;22.214;2023-11-18T01:18:58;98943.69;;;9.14;63.00
21803;BME280;18591;47.080;22.214;2023-11-18T01:21:01;98942.53;;;8.99;63.32
21803;BME280;18591;47.080;22.214;2023-11-18T01:23:04;98932.88;;;8.95;63.21
21803;BME280;18591;47.080;22.214;2023-11-18T01:25:07;98945.44;;;8.93;62.93
21803;BME280;18591;47.080;22.214;2023-11-18T01:27:11;98944.75;;;8.88;63.07
21803;BME280;18591;47.080;22.214;2023-11-18T01:29:14;98951.78;;;8.90;63.09
21803;BME280;18591;47.080;22.214;2023-11-18T01:31:16;98946.44;;;8.90;63.12
21803;BME280;18591;47.080;22.214;2023-11-18T01:33:19;98951.88;;;8.89;62.88
21803;BME280;18591;47.080;22.214;2023-11-18T01:35:22;98958.97;;;8.90;63.45
21803;BME280;18591;47.080;22.214;2023-11-18T01:37:29;98951.63;;;8.95;63.14
21803;BME280;18591;47.080;22.214;2023-11-18T01:39:31;98951.47;;;8.98;62.83
21803;BME280;18591;47.080;22.214;2023-11-18T01:41:33;98968.19;;;8.83;62.29
21803;BME280;18591;47.080;22.214;2023-11-18T01:43:36;98957.63;;;8.78;62.89
21803;BME280;18591;47.080;22.214;2023-11-18T01:45:41;98964.00;;;8.76;62.44
21803;BME280;18591;47.080;22.214;2023-11-18T01:47:44;98965.88;;;8.74;63.15
21803;BME280;18591;47.080;22.214;2023-11-18T01:49:47;98972.09;;;8.74;62.54
21803;BME280;18591;47.080;22.214;2023-11-18T01:51:53;98972.84;;;8.78;62.46
21803;BME280;18591;47.080;22.214;2023-11-18T01:53:58;98969.44;;;8.74;62.69
21803;BME280;18591;47.080;22.214;2023-11-18T01:56:02;98974.00;;;8.70;62.26
21803;BME280;18591;47.080;22.214;2023-11-18T01:58:07;98968.63;;;8.72;62.78
21803;BME280;18591;47.080;22.214;2023-11-18T02:00:13;98973.03;;;8.73;62.90
21803;BME280;18591;47.080;22.214;2023-11-18T02:02:20;98973.03;;;8.73;62.56
21803;BME280;18591;47.080;22.214;2023-11-18T02:04:26;98977.59;;;8.71;62.41
21803;BME280;18591;47.080;22.214;2023-11-18T02:06:30;98972.09;;;8.74;61.97
21803;BME280;18591;47.080;22.214;2023-11-18T02:08:36;98973.78;;;8.77;62.22
21803;BME280;18591;47.080;22.214;2023-11-18T02:11:08;98972.06;;;8.52;61.86
21803;BME280;18591;47.080;22.214;2023-11-18T02:13:22;98977.88;;;8.40;62.10
21803;BME280;18591;47.080;22.214;2023-11-18T02:15:29;98978.59;;;8.45;62.44
21803;BME280;18591;47.080;22.214;2023-11-18T02:17:34;98984.00;;;8.43;62.40
21803;BME280;18591;47.080;22.214;2023-11-18T02:19:40;98982.50;;;8.35;62.50
21803;BME280;18591;47.080;22.214;2023-11-18T02:21:44;98987.84;;;8.35;62.53
21803;BME280;18591;47.080;22.214;2023-11-18T02:23:48;98994.03;;;8.13;62.60
21803;BME280;18591;47.080;22.214;2023-11-18T02:25:50;99001.50;;;8.28;62.80
21803;BME280;18591;47.080;22.214;2023-11-18T02:27:53;98998.09;;;8.23;62.74
21803;BME280;18591;47.080;22.214;2023-11-18T02:29:56;98994.44;;;8.26;62.57
21803;BME280;18591;47.080;22.214;2023-11-18T02:34:22;98992.63;;;8.26;62.75
21803;BME280;18591;47.080;22.214;2023-11-18T02:36:35;99001.13;;;8.14;62.45
21803;BME280;18591;47.080;22.214;2023-11-18T02:38:50;98998.34;;;8.17;62.84
21803;BME280;18591;47.080;22.214;2023-11-18T02:40:58;99003.19;;;8.06;62.59
21803;BME280;18591;47.080;22.214;2023-11-18T02:43:04;99006.94;;;8.02;62.85
21803;BME280;18591;47.080;22.214;2023-11-18T02:45:08;99010.31;;;8.07;62.24
21803;BME280;18591;47.080;22.214;2023-11-18T02:47:14;99018.22;;;8.10;62.94
21803;BME280;18591;47.080;22.214;2023-11-18T02:49:18;99018.16;;;8.12;62.96
21803;BME280;18591;47.080;22.214;2023-11-18T02:51:20;99015.44;;;8.13;62.89
21803;BME280;18591;47.080;22.214;2023-11-18T02:53:23;99015.56;;;8.10;62.89
21803;BME280;18591;47.080;22.214;2023-11-18T02:55:26;99020.06;;;8.08;62.86
21803;BME280;18591;47.080;22.214;2023-11-18T02:57:29;99025.38;;;8.10;62.97
21803;BME280;18591;47.080;22.214;2023-11-18T02:59:31;99021.78;;;8.11;62.68
21803;BME280;18591;47.080;22.214;2023-11-18T03:01:35;99033.34;;;8.11;63.05
21803;BME280;18591;47.080;22.214;2023-11-18T03:03:37;99042.03;;;7.93;62.58
21803;BME280;18591;47.080;22.214;2023-11-18T03:05:40;99039.69;;;7.83;63.48
21803;BME280;18591;47.080;22.214;2023-11-18T03:07:43;99044.66;;;7.94;62.90
21803;BME280;18591;47.080;22.214;2023-11-18T03:09:46;99041.00;;;7.97;63.28
21803;BME280;18591;47.080;22.214;2023-11-18T03:11:49;99040.75;;;7.78;63.54
21803;BME280;18591;47.080;22.214;2023-11-18T03:13:53;99041.19;;;7.91;63.30
21803;BME280;18591;47.080;22.214;2023-11-18T03:15:56;99045.56;;;7.93;62.67
21803;BME280;18591;47.080;22.214;2023-11-18T03:17:58;99040.28;;;7.92;62.85
21803;BME280;18591;47.080;22.214;2023-11-18T03:20:01;99051.38;;;7.81;63.47
21803;BME280;18591;47.080;22.214;2023-11-18T03:22:04;99049.69;;;7.78;63.38
21803;BME280;18591;47.080;22.214;2023-11-18T03:24:07;99058.28;;;7.87;63.30
21803;BME280;18591;47.080;22.214;2023-11-18T03:26:09;99053.22;;;7.79;63.17
21803;BME280;18591;47.080;22.214;2023-11-18T03:28:15;99058.28;;;7.87;63.33
21803;BME280;18591;47.080;22.214;2023-11-18T03:30:17;99065.66;;;7.80;62.75
21803;BME280;18591;47.080;22.214;2023-11-18T03:32:20;99063.94;;;7.77;63.23
21803;BME280;18591;47.080;22.214;2023-11-18T03:34:22;99068.53;;;7.74;62.82
21803;BME280;18591;47.080;22.214;2023-11-18T03:36:25;99077.44;;;7.74;63.35
21803;BME280;18591;47.080;22.214;2023-11-18T03:38:27;99074.16;;;7.66;63.25
21803;BME280;18591;47.080;22.214;2023-11-18T03:40:31;99089.16;;;7.70;63.30
21803;BME280;18591;47.080;22.214;2023-11-18T03:42:33;99080.09;;;7.74;62.99
21803;BME280;18591;47.080;22.214;2023-11-18T03:44:38;99088.09;;;7.76;63.34
21803;BME280;18591;47.080;22.214;2023-11-18T03:46:40;99078.13;;;7.81;63.17
21803;BME280;18591;47.080;22.214;2023-11-18T03:48:44;99087.16;;;7.77;63.24
21803;BME280;18591;47.080;22.214;2023-11-18T03:50:47;99084.50;;;7.75;63.57
21803;BME280;18591;47.080;22.214;2023-11-18T03:52:49;99084.50;;;7.75;63.24
21803;BME280;18591;47.080;22.214;2023-11-18T03:54:52;99089.59;;;7.83;62.94
21803;BME280;18591;47.080;22.214;2023-11-18T03:56:54;99088.97;;;7.76;62.92
21803;BME280;18591;47.080;22.214;2023-11-18T03:58:57;99102.25;;;7.78;62.74
21803;BME280;18591;47.080;22.214;2023-11-18T04:01:00;99101.66;;;7.70;63.57
21803;BME280;18591;47.080;22.214;2023-11-18T04:03:03;99102.47;;;7.72;63.59
21803;BME280;18591;47.080;22.214;2023-11-18T04:05:09;99101.34;;;7.79;63.50
21803;BME280;18591;47.080;22.214;2023-11-18T04:07:12;99103.44;;;7.69;63.09
21803;BME280;18591;47.080;22.214;2023-11-18T04:09:15;99096.88;;;7.79;62.83
21803;BME280;18591;47.080;22.214;2023-11-18T04:11:18;99107.03;;;7.41;64.08
21803;BME280;18591;47.080;22.214;2023-11-18T04:13:20;99103.56;;;7.66;63.05
21803;BME280;18591;47.080;22.214;2023-11-18T04:15:23;99105.28;;;7.67;63.36
21803;BME280;18591;47.080;22.214;2023-11-18T04:17:26;99112.16;;;7.76;63.31
21803;BME280;18591;47.080;22.214;2023-11-18T04:19:31;99111.44;;;7.71;63.16
21803;BME280;18591;47.080;22.214;2023-11-18T04:21:34;99110.38;;;7.75;63.23
21803;BME280;18591;47.080;22.214;2023-11-18T04:23:41;99113.31;;;7.67;63.22
21803;BME280;18591;47.080;22.214;2023-11-18T04:25:44;99121.22;;;7.70;63.58
21803;BME280;18591;47.080;22.214;2023-11-18T04:27:46;99112.09;;;7.77;63.27
21803;BME280;18591;47.080;22.214;2023-11-18T04:29:49;99118.16;;;7.82;63.09
21803;BME280;18591;47.080;22.214;2023-11-18T04:31:51;99116.59;;;7.75;63.28
21803;BME280;18591;47.080;22.214;2023-11-18T04:33:55;99124.59;;;7.77;63.22
21803;BME280;18591;47.080;22.214;2023-11-18T04:35:58;99131.03;;;7.71;63.53
21803;BME280;18591;47.080;22.214;2023-11-18T04:38:00;99129.22;;;7.72;63.21
21803;BME280;18591;47.080;22.214;2023-11-18T04:40:03;99122.03;;;7.74;63.08
21803;BME280;18591;47.080;22.214;2023-11-18T04:42:06;99131.50;;;7.84;63.25
21803;BME280;18591;47.080;22.214;2023-11-18T04:44:09;99136.84;;;7.84;63.25
21803;BME280;18591;47.080;22.214;2023-11-18T04:46:11;99140.41;;;7.83;62.89
21803;BME280;18591;47.080;22.214;2023-11-18T04:48:15;99137.69;;;7.84;63.08
21803;BME280;18591;47.080;22.214;2023-11-18T04:50:18;99144.78;;;7.85;62.72
21803;BME280;18591;47.080;22.214;2023-11-18T04:52:21;99140.53;;;7.80;63.17
21803;BME280;18591;47.080;22.214;2023-11-18T04:54:23;99149.50;;;7.79;63.10
21803;BME280;18591;47.080;22.214;2023-11-18T04:56:26;99156.44;;;7.84;62.95
21803;BME280;18591;47.080;22.214;2023-11-18T04:58:28;99147.81;;;7.75;63.19
21803;BME280;18591;47.080;22.214;2023-11-18T05:00:38;99150.56;;;7.73;63.12
21803;BME280;18591;47.080;22.214;2023-11-18T05:02:40;99155.69;;;7.79;62.89
21803;BME280;18591;47.080;22.214;2023-11-18T05:04:43;99155.56;;;7.84;62.79
21803;BME280;18591;47.080;22.214;2023-11-18T05:06:47;99155.56;;;7.84;63.04
21803;BME280;18591;47.080;22.214;2023-11-18T05:08:49;99160.06;;;7.82;62.91
21803;BME280;18591;47.080;22.214;2023-11-18T05:10:51;99150.13;;;7.85;62.76
21803;BME280;18591;47.080;22.214;2023-11-18T05:12:54;99162.78;;;7.80;63.14
21803;BME280;18591;47.080;22.214;2023-11-18T05:14:59;99169.91;;;7.81;62.98
21803;BME280;18591;47.080;22.214;2023-11-18T05:17:02;99165.63;;;7.76;62.78
21803;BME280;18591;47.080;22.214;2023-11-18T05:23:01;99174.56;;;7.75;62.75
21803;BME280;18591;47.080;22.214;2023-11-18T05:25:04;99176.22;;;7.79;62.79
21803;BME280;18591;47.080;22.214;2023-11-18T05:27:06;99183.78;;;7.66;62.74
21803;BME280;18591;47.080;22.214;2023-11-18T05:29:09;99183.47;;;7.75;62.63
21803;BME280;18591;47.080;22.214;2023-11-18T05:31:12;99172.03;;;7.70;62.50
21803;BME280;18591;47.080;22.214;2023-11-18T05:33:15;99192.56;;;7.70;63.09
21803;BME280;18591;47.080;22.214;2023-11-18T05:35:19;99193.41;;;7.70;62.85
21803;BME280;18591;47.080;22.214;2023-11-18T05:37:25;99195.28;;;7.68;62.94
21803;BME280;18591;47.080;22.214;2023-11-18T05:39:30;99196.16;;;7.69;63.22
21803;BME280;18591;47.080;22.214;2023-11-18T05:41:33;99196.69;;;7.80;63.25
21803;BME280;18591;47.080;22.214;2023-11-18T05:43:37;99198.50;;;7.79;62.66
21803;BME280;18591;47.080;22.214;2023-11-18T05:45:43;99200.94;;;7.85;63.00
21803;BME280;18591;47.080;22.214;2023-11-18T05:48:05;99214.28;;;7.87;62.83
21803;BME280;18591;47.080;22.214;2023-11-18T05:50:08;99213.56;;;7.82;63.32
21803;BME280;18591;47.080;22.214;2023-11-18T05:52:12;99213.34;;;7.88;62.83
21803;BME280;18591;47.080;22.214;2023-11-18T05:54:14;99208.94;;;7.87;63.14
21803;BME280;18591;47.080;22.214;2023-11-18T05:56:16;99217.09;;;7.82;63.26
21803;BME280;18591;47.080;22.214;2023-11-18T05:58:19;99216.50;;;7.73;63.41
21803;BME280;18591;47.080;22.214;2023-11-18T06:00:21;99215.66;;;7.72;63.11
21803;BME280;18591;47.080;22.214;2023-11-18T06:02:36;99219.88;;;7.79;63.32
21803;BME280;18591;47.080;22.214;2023-11-18T06:04:41;99227.59;;;7.89;63.06
21803;BME280;18591;47.080;22.214;2023-11-18T06:06:44;99226.63;;;7.91;63.08
21803;BME280;18591;47.080;22.214;2023-11-18T06:08:47;99236.75;;;7.81;63.31
21803;BME280;18591;47.080;22.214;2023-11-18T06:10:50;99231.19;;;7.88;62.98
21803;BME280;18591;47.080;22.214;2023-11-18T06:12:58;99247.00;;;7.67;63.04
21803;BME280;18591;47.080;22.214;2023-11-18T06:15:01;99245.69;;;7.80;63.34
21803;BME280;18591;47.080;22.214;2023-11-18T06:17:03;99250.16;;;7.80;62.99
21803;BME280;18591;47.080;22.214;2023-11-18T06:19:06;99250.06;;;7.83;63.28
21803;BME280;18591;47.080;22.214;2023-11-18T06:21:11;99255.41;;;7.83;63.28
21803;BME280;18591;47.080;22.214;2023-11-18T06:23:13;99254.50;;;7.84;63.21
21803;BME280;18591;47.080;22.214;2023-11-18T06:25:20;99252.75;;;7.83;63.12
21803;BME280;18591;47.080;22.214;2023-11-18T06:27:24;99257.75;;;7.94;62.93
21803;BME280;18591;47.080;22.214;2023-11-18T06:29:27;99267.63;;;7.92;62.87
21803;BME280;18591;47.080;22.214;2023-11-18T06:31:31;99263.53;;;7.80;62.80
21803;BME280;18591;47.080;22.214;2023-11-18T06:33:38;99265.34;;;7.79;62.93
21803;BME280;18591;47.080;22.214;2023-11-18T06:35:45;99264.47;;;7.79;63.11
21803;BME280;18591;47.080;22.214;2023-11-18T06:37:48;99270.06;;;7.71;63.01
21803;BME280;18591;47.080;22.214;2023-11-18T06:39:50;99280.19;;;7.60;63.26
21803;BME280;18591;47.080;22.214;2023-11-18T06:41:53;99286.78;;;7.78;63.15
21803;BME280;18591;47.080;22.214;2023-11-18T06:43:55;99277.88;;;7.77;62.88
21803;BME280;18591;47.080;22.214;2023-11-18T06:45:59;99280.84;;;7.68;63.40
21803;BME280;18591;47.080;22.214;2023-11-18T06:48:01;99286.97;;;7.72;63.06
21803;BME280;18591;47.080;22.214;2023-11-18T06:50:04;99285.06;;;7.75;62.81
21803;BME280;18591;47.080;22.214;2023-11-18T06:52:08;99292.13;;;7.78;62.99
21803;BME280;18591;47.080;22.214;2023-11-18T06:54:14;99294.03;;;7.74;63.33
21803;BME280;18591;47.080;22.214;2023-11-18T06:56:17;99291.34;;;7.74;62.89
21803;BME280;18591;47.080;22.214;2023-11-18T06:58:20;99290.47;;;7.74;62.94
21803;BME280;18591;47.080;22.214;2023-11-18T07:00:23;99303.38;;;7.59;63.16
21803;BME280;18591;47.080;22.214;2023-11-18T07:02:30;99300.66;;;7.61;63.28
21803;BME280;18591;47.080;22.214;2023-11-18T07:04:32;99303.28;;;7.62;63.57
21803;BME280;18591;47.080;22.214;2023-11-18T07:06:35;99301.31;;;7.69;63.21
21803;BME280;18591;47.080;22.214;2023-11-18T07:08:40;99304.63;;;7.77;63.09
21803;BME280;18591;47.080;22.214;2023-11-18T07:10:43;99307.31;;;7.77;63.31
21803;BME280;18591;47.080;22.214;2023-11-18T07:12:45;99308.09;;;7.81;63.46
21803;BME280;18591;47.080;22.214;2023-11-18T07:14:48;99311.06;;;7.70;63.58
21803;BME280;18591;47.080;22.214;2023-11-18T07:16:50;99300.34;;;7.72;63.49
21803;BME280;18591;47.080;22.214;2023-11-18T07:18:53;99314.25;;;7.83;63.50
21803;BME280;18591;47.080;22.214;2023-11-18T07:20:56;99311.69;;;7.80;63.70
21803;BME280;18591;47.080;22.214;2023-11-18T07:22:59;99321.28;;;7.87;63.20
21803;BME280;18591;47.080;22.214;2023-11-18T07:25:02;99319.38;;;7.91;63.58
21803;BME280;18591;47.080;22.214;2023-11-18T07:27:05;99318.69;;;7.84;63.30
21803;BME280;18591;47.080;22.214;2023-11-18T07:29:08;99320.88;;;7.71;63.77
21803;BME280;18591;47.080;22.214;2023-11-18T07:31:10;99332.22;;;7.78;63.37
21803;BME280;18591;47.080;22.214;2023-11-18T07:33:14;99330.69;;;7.71;63.61
21803;BME280;18591;47.080;22.214;2023-11-18T07:35:17;99334.00;;;7.79;63.23
21803;BME280;18591;47.080;22.214;2023-11-18T07:37:20;99331.38;;;7.77;63.69
21803;BME280;18591;47.080;22.214;2023-11-18T07:39:23;99337.34;;;7.85;63.17
21803;BME280;18591;47.080;22.214;2023-11-18T07:41:27;99336.59;;;7.82;63.20
21803;BME280;18591;47.080;22.214;2023-11-18T07:43:35;99335.66;;;7.83;63.32
21803;BME280;18591;47.080;22.214;2023-11-18T07:45:42;99347.09;;;7.88;63.27
21803;BME280;18591;47.080;22.214;2023-11-18T07:47:45;99337.31;;;7.87;63.43
21803;BME280;18591;47.080;22.214;2023-11-18T07:49:50;99340.22;;;7.79;63.76
21803;BME280;18591;47.080;22.214;2023-11-18T07:51:53;99336.69;;;7.79;63.89
21803;BME280;18591;47.080;22.214;2023-11-18T07:53:56;99353.41;;;7.85;63.59
21803;BME280;18591;47.080;22.214;2023-11-18T07:55:59;99348.88;;;7.88;63.36
21803;BME280;18591;47.080;22.214;2023-11-18T07:58:04;99347.31;;;7.80;63.42
21803;BME280;18591;47.080;22.214;2023-11-18T08:00:07;99361.38;;;7.87;63.14
21803;BME280;18591;47.080;22.214;2023-11-18T08:02:16;99353.47;;;7.84;63.45
21803;BME280;18591;47.080;22.214;2023-11-18T08:04:19;99355.09;;;7.88;63.47
21803;BME280;18591;47.080;22.214;2023-11-18T08:06:23;99357.88;;;7.85;63.75
21803;BME280;18591;47.080;22.214;2023-11-18T08:08:29;99354.34;;;7.84;63.22
21803;BME280;18591;47.080;22.214;2023-11-18T08:10:32;99362.31;;;7.86;63.21
21803;BME280;18591;47.080;22.214;2023-11-18T08:12:35;99357.09;;;7.81;63.32
21803;BME280;18591;47.080;22.214;2023-11-18T08:14:38;99354.47;;;7.80;63.39
21803;BME280;18591;47.080;22.214;2023-11-18T08:16:40;99366.75;;;7.87;63.35
21803;BME280;18591;47.080;22.214;2023-11-18T08:18:43;99361.31;;;7.89;63.27
21803;BME280;18591;47.080;22.214;2023-11-18T08:20:47;99364.16;;;7.84;63.90
21803;BME280;18591;47.080;22.214;2023-11-18T08:22:49;99373.06;;;7.84;64.18
21803;BME280;18591;47.080;22.214;2023-11-18T08:24:52;99376.34;;;7.94;63.60
21803;BME280;18591;47.080;22.214;2023-11-18T08:26:55;99378.38;;;7.86;64.17
21803;BME280;18591;47.080;22.214;2023-11-18T08:28:58;99374.69;;;7.89;63.78
21803;BME280;18591;47.080;22.214;2023-11-18T08:31:01;99381.72;;;7.93;63.89
21803;BME280;18591;47.080;22.214;2023-11-18T08:33:03;99388.03;;;7.90;63.73
21803;BME280;18591;47.080;22.214;2023-11-18T08:35:08;99387.03;;;7.94;63.63
21803;BME280;18591;47.080;22.214;2023-11-18T08:37:11;99392.44;;;7.93;63.80
21803;BME280;18591;47.080;22.214;2023-11-18T08:39:15;99394.34;;;7.88;63.88
21803;BME280;18591;47.080;22.214;2023-11-18T08:41:18;99389.19;;;7.81;63.98
21803;BME280;18591;47.080;22.214;2023-11-18T08:43:22;99402.34;;;7.89;64.15
21803;BME280;18591;47.080;22.214;2023-11-18T08:45:26;99407.94;;;7.80;64.28
21803;BME280;18591;47.080;22.214;2023-11-18T08:47:31;99401.59;;;7.84;64.23
21803;BME280;18591;47.080;22.214;2023-11-18T08:49:34;99403.22;;;7.90;64.10
21803;BME280;18591;47.080;22.214;2023-11-18T08:51:37;99407.78;;;7.86;64.15
21803;BME280;18591;47.080;22.214;2023-11-18T08:53:40;99405.25;;;7.81;64.85
21803;BME280;18591;47.080;22.214;2023-11-18T08:55:47;99407.69;;;7.89;64.24
21803;BME280;18591;47.080;22.214;2023-11-18T08:58:18;99413.78;;;7.94;63.87
21803;BME280;18591;47.080;22.214;2023-11-18T09:00:28;99411.25;;;7.90;64.55
21803;BME280;18591;47.080;22.214;2023-11-18T09:02:50;99415.56;;;7.94;64.66
21803;BME280;18591;47.080;22.214;2023-11-18T09:04:55;99408.44;;;7.94;64.45
21803;BME280;18591;47.080;22.214;2023-11-18T09:07:00;99412.97;;;7.91;64.54
21803;BME280;18591;47.080;22.214;2023-11-18T09:09:03;99417.34;;;7.95;64.40
21803;BME280;18591;47.080;22.214;2023-11-18T09:11:14;99420.16;;;7.89;64.62
21803;BME280;18591;47.080;22.214;2023-11-18T09:13:26;99417.25;;;7.67;64.92
21803;BME280;18591;47.080;22.214;2023-11-18T09:15:32;99410.63;;;7.80;64.32
21803;BME280;18591;47.080;22.214;2023-11-18T09:17:34;99413.41;;;7.77;64.69
21803;BME280;18591;47.080;22.214;2023-11-18T09:19:37;99417.75;;;7.81;64.56
21803;BME280;18591;47.080;22.214;2023-11-18T09:21:40;99409.78;;;7.78;64.53
21803;BME280;18591;47.080;22.214;2023-11-18T09:23:43;99415.66;;;7.91;64.37
21803;BME280;18591;47.080;22.214;2023-11-18T09:25:47;99413.91;;;7.90;64.46
21803;BME280;18591;47.080;22.214;2023-11-18T09:27:50;99421.84;;;7.93;64.25
21803;BME280;18591;47.080;22.214;2023-11-18T09:29:53;99424.56;;;7.91;64.45
21803;BME280;18591;47.080;22.214;2023-11-18T09:31:55;99412.34;;;7.82;64.56
21803;BME280;18591;47.080;22.214;2023-11-18T09:34:01;99412.00;;;7.93;64.35
21803;BME280;18591;47.080;22.214;2023-11-18T09:36:08;99419.94;;;7.96;64.35
21803;BME280;18591;47.080;22.214;2023-11-18T09:38:10;99415.09;;;7.79;64.63
21803;BME280;18591;47.080;22.214;2023-11-18T09:40:16;99414.16;;;7.80;64.61
21803;BME280;18591;47.080;22.214;2023-11-18T09:42:20;99414.00;;;7.87;64.70
21803;BME280;18591;47.080;22.214;2023-11-18T09:44:27;99420.25;;;7.85;64.70
21803;BME280;18591;47.080;22.214;2023-11-18T09:46:29;99426.56;;;7.83;65.09
21803;BME280;18591;47.080;22.214;2023-11-18T09:48:35;99426.91;;;7.72;65.26
21803;BME280;18591;47.080;22.214;2023-11-18T09:50:53;99424.75;;;7.85;64.90
21803;BME280;18591;47.080;22.214;2023-11-18T09:52:59;99428.25;;;7.87;64.53
21803;BME280;18591;47.080;22.214;2023-11-18T09:55:13;99436.09;;;7.93;64.78
21803;BME280;18591;47.080;22.214;2023-11-18T09:57:40;99427.97;;;7.96;64.42
21803;BME280;18591;47.080;22.214;2023-11-18T10:00:00;99429.13;;;7.88;64.51
21803;BME280;18591;47.080;22.214;2023-11-18T10:02:13;99429.97;;;7.90;65.02
21803;BME280;18591;47.080;22.214;2023-11-18T10:04:16;99436.22;;;7.89;64.94
21803;BME280;18591;47.080;22.214;2023-11-18T10:06:20;99435.25;;;7.91;64.61
21803;BME280;18591;47.080;22.214;2023-11-18T10:08:23;99438.75;;;7.93;65.00
21803;BME280;18591;47.080;22.214;2023-11-18T10:10:28;99444.69;;;8.04;64.80
21803;BME280;18591;47.080;22.214;2023-11-18T10:12:40;99446.47;;;8.04;64.67
21803;BME280;18591;47.080;22.214;2023-11-18T10:14:42;99444.75;;;8.01;65.19
21803;BME280;18591;47.080;22.214;2023-11-18T10:16:48;99449.25;;;8.01;64.66
21803;BME280;18591;47.080;22.214;2023-11-18T10:18:50;99460.88;;;8.00;64.83
21803;BME280;18591;47.080;22.214;2023-11-18T10:20:55;99459.16;;;7.97;64.02
21803;BME280;18591;47.080;22.214;2023-11-18T10:23:09;99448.56;;;7.94;63.95
21803;BME280;18591;47.080;22.214;2023-11-18T10:25:23;99460.56;;;7.79;64.97
21803;BME280;18591;47.080;22.214;2023-11-18T10:27:29;99445.38;;;7.81;64.88
21803;BME280;18591;47.080;22.214;2023-11-18T10:29:32;99448.72;;;7.88;64.81
21803;BME280;18591;47.080;22.214;2023-11-18T10:31:37;99459.28;;;7.93;64.94
21803;BME280;18591;47.080;22.214;2023-11-18T10:33:49;99448.59;;;7.93;64.74
21803;BME280;18591;47.080;22.214;2023-11-18T10:35:52;99454.78;;;7.95;64.59
21803;BME280;18591;47.080;22.214;2023-11-18T10:37:57;99447.75;;;7.91;64.86
21803;BME280;18591;47.080;22.214;2023-11-18T10:40:05;99465.53;;;7.93;64.49
21803;BME280;18591;47.080;22.214;2023-11-18T10:42:09;99456.72;;;7.90;64.71
21803;BME280;18591;47.080;22.214;2023-11-18T10:44:11;99457.56;;;7.92;64.70
21803;BME280;18591;47.080;22.214;2023-11-18T10:46:17;99463.50;;;8.01;65.25
21803;BME280;18591;47.080;22.214;2023-11-18T10:48:23;99459.78;;;8.07;64.35
21803;BME280;18591;47.080;22.214;2023-11-18T10:50:27;99468.78;;;8.04;64.95
21803;BME280;18591;47.080;22.214;2023-11-18T10:52:34;99471.34;;;8.07;65.09
21803;BME280;18591;47.080;22.214;2023-11-18T10:54:50;99471.47;;;8.04;64.72
21803;BME280;18591;47.080;22.214;2023-11-18T10:57:00;99478.53;;;8.05;64.83
21803;BME280;18591;47.080;22.214;2023-11-18T10:59:10;99466.69;;;8.14;64.53
21803;BME280;18591;47.080;22.214;2023-11-18T11:01:31;99477.59;;;8.08;64.58
21803;BME280;18591;47.080;22.214;2023-11-18T11:03:34;99464.97;;;8.12;64.81
21803;BME280;18591;47.080;22.214;2023-11-18T11:05:38;99474.06;;;8.06;64.87